createdAt,value
2022-08-22T00:03:04.339Z,5.25
2022-08-22T00:03:16.159Z,11.50
2022-08-22T00:07:14.741Z,7.67
2022-08-22T00:11:34.994Z,9.73
2022-08-22T00:15:43.289Z,8.57
2022-08-22T00:20:13.214Z,7.70
2022-08-22T00:24:51.750Z,7.73
2022-08-22T00:29:16.379Z,10.20
2022-08-22T00:33:39.204Z,7.83
2022-08-22T00:37:45.241Z,8.97
2022-08-22T00:42:31.375Z,12.90
2022-08-22T00:47:41.720Z,7.53
2022-08-22T00:52:00.450Z,12.43
2022-08-22T00:56:12.897Z,9.47
2022-08-22T01:00:25.060Z,8.23
2022-08-22T01:05:02.640Z,10.80
2022-08-22T01:09:30.242Z,9.63
2022-08-22T01:14:07.184Z,9.57
2022-08-22T01:18:27.948Z,8.00
2022-08-22T01:22:52.082Z,10.63
2022-08-22T01:27:10.907Z,8.77
2022-08-22T01:32:11.501Z,10.63
2022-08-22T01:36:46.085Z,12.73
2022-08-22T01:41:20.168Z,9.90
2022-08-22T01:45:53.458Z,10.13
2022-08-22T01:50:11.197Z,10.43
2022-08-22T01:54:34.525Z,8.60
2022-08-22T01:58:37.277Z,9.43
2022-08-22T02:03:08.130Z,10.20
2022-08-22T02:07:31.747Z,10.37
2022-08-22T02:11:42.845Z,14.43
2022-08-22T02:15:39.923Z,10.33
2022-08-22T02:20:03.479Z,11.47
2022-08-22T02:24:18.202Z,13.63
2022-08-22T02:28:33.273Z,10.13
2022-08-22T02:33:10.985Z,9.83
2022-08-22T02:37:35.089Z,11.23
2022-08-22T02:41:55.626Z,9.43
2022-08-22T02:46:49.702Z,10.40
2022-08-22T02:51:13.043Z,13.53
2022-08-22T02:55:28.948Z,10.80
2022-08-22T02:59:38.533Z,13.23
2022-08-22T03:03:43.587Z,9.50
2022-08-22T03:07:56.986Z,8.87
2022-08-22T03:12:49.145Z,11.17
2022-08-22T03:17:05.983Z,10.20
2022-08-22T03:21:24.364Z,10.33
2022-08-22T03:25:46.289Z,9.33
2022-08-22T03:30:36.507Z,10.23
2022-08-22T03:34:35.049Z,9.37
2022-08-22T03:38:42.200Z,9.47
2022-08-22T03:43:33.791Z,9.17
2022-08-22T03:48:12.737Z,8.93
2022-08-22T03:52:31.217Z,12.27
2022-08-22T03:57:23.144Z,12.87
2022-08-22T04:01:39.812Z,10.20
2022-08-22T04:06:07.829Z,13.10
2022-08-22T04:10:51.814Z,13.97
2022-08-22T04:15:18.873Z,12.87
2022-08-22T04:19:40.504Z,11.27
2022-08-22T04:24:13.031Z,13.00
2022-08-22T04:28:37.481Z,12.07
2022-08-22T04:32:51.227Z,11.57
2022-08-22T04:36:57.969Z,10.77
2022-08-22T04:41:05.483Z,13.53
2022-08-22T04:45:39.270Z,11.40
2022-08-22T04:49:47.682Z,10.27
2022-08-22T04:54:41.479Z,16.60
2022-08-22T04:58:51.014Z,9.70
2022-08-22T05:02:58.031Z,12.03
2022-08-22T05:07:12.167Z,12.07
2022-08-22T05:11:12.314Z,11.27
2022-08-22T05:15:23.134Z,10.90
2022-08-22T05:19:32.277Z,10.73
2022-08-22T05:23:40.288Z,10.83
2022-08-22T05:27:47.570Z,11.90
2022-08-22T05:31:57.280Z,12.40
2022-08-22T05:36:11.980Z,10.50
2022-08-22T05:40:30.629Z,9.80
2022-08-22T05:44:34.661Z,11.83
2022-08-22T05:48:45.809Z,12.43
2022-08-22T05:53:03.359Z,13.70
2022-08-22T05:57:27.035Z,13.77
2022-08-22T06:01:36.048Z,12.87
2022-08-22T06:05:40.140Z,10.60
2022-08-22T06:09:54.987Z,13.03
2022-08-22T06:14:03.003Z,12.00
2022-08-22T06:18:09.370Z,15.70
2022-08-22T06:22:07.374Z,12.23
2022-08-22T06:26:20.549Z,9.63
2022-08-22T06:30:20.554Z,10.43
2022-08-22T06:34:34.577Z,9.80
2022-08-22T06:38:56.424Z,12.87
2022-08-22T06:42:55.863Z,10.40
2022-08-22T06:46:58.508Z,9.70
2022-08-22T06:50:59.168Z,9.55
2022-08-22T06:55:09.243Z,10.50
2022-08-22T06:59:17.534Z,11.13
2022-08-22T07:03:29.705Z,9.93
2022-08-22T07:07:28.411Z,10.55
2022-08-22T07:11:41.391Z,12.45
2022-08-22T07:15:43.341Z,9.05
2022-08-22T07:19:55.377Z,10.30
2022-08-22T07:23:54.703Z,9.00
2022-08-22T07:28:08.269Z,12.60
2022-08-22T07:32:23.864Z,11.57
2022-08-22T07:36:41.774Z,7.97
2022-08-22T07:41:20.476Z,7.45
2022-08-22T07:45:49.521Z,9.85
2022-08-22T07:49:58.760Z,10.93
2022-08-22T07:54:22.778Z,8.35
2022-08-22T07:58:29.947Z,5.97
2022-08-22T08:02:28.410Z,6.43
2022-08-22T08:06:28.235Z,4.95
2022-08-22T08:10:34.933Z,7.25
2022-08-22T08:14:37.536Z,6.68
2022-08-22T08:18:38.890Z,9.27
2022-08-22T08:22:38.949Z,6.35
2022-08-22T08:27:13.957Z,8.43
2022-08-22T08:31:27.795Z,7.68
2022-08-22T08:35:31.767Z,5.70
2022-08-22T08:39:51.869Z,4.43
2022-08-22T08:44:46.069Z,7.05
2022-08-22T08:49:24.072Z,4.63
2022-08-22T08:53:58.390Z,4.50
2022-08-22T08:58:10.249Z,4.43
2022-08-22T09:02:56.142Z,8.35
2022-08-22T09:07:50.420Z,5.93
2022-08-22T09:12:16.505Z,4.05
2022-08-22T09:16:51.813Z,4.50
2022-08-22T09:21:03.954Z,7.32
2022-08-22T09:25:48.418Z,3.10
2022-08-22T09:30:06.385Z,3.25
2022-08-22T09:34:34.691Z,2.90
2022-08-22T09:38:47.703Z,4.93
2022-08-22T09:43:11.066Z,3.78
2022-08-22T09:47:26.850Z,3.35
2022-08-22T09:52:05.338Z,5.90
2022-08-22T09:56:26.861Z,3.97
2022-08-22T10:00:47.406Z,3.92
2022-08-22T10:05:40.421Z,5.45
2022-08-22T10:10:09.226Z,6.93
2022-08-22T10:14:22.455Z,4.35
2022-08-22T10:18:53.729Z,3.55
2022-08-22T10:23:09.522Z,4.03
2022-08-22T10:27:31.057Z,5.68
2022-08-22T10:31:59.148Z,5.10
2022-08-22T10:36:12.172Z,4.88
2022-08-22T10:40:27.445Z,3.42
2022-08-22T10:44:37.276Z,6.25
2022-08-22T10:49:07.927Z,4.30
2022-08-22T10:53:33.172Z,5.18
2022-08-22T10:58:09.336Z,4.80
2022-08-22T11:02:38.555Z,3.17
2022-08-22T11:07:14.324Z,5.70
2022-08-22T11:11:32.651Z,3.60
2022-08-22T11:16:00.878Z,4.10
2022-08-22T11:20:31.993Z,4.07
2022-08-22T11:24:46.527Z,3.35
2022-08-22T11:29:13.636Z,5.32
2022-08-22T11:33:46.259Z,3.17
2022-08-22T11:38:15.412Z,3.00
2022-08-22T11:42:32.028Z,6.45
2022-08-22T11:46:39.982Z,2.67
2022-08-22T11:51:00.392Z,3.58
2022-08-22T11:55:35.781Z,2.30
2022-08-22T11:59:59.612Z,5.95
2022-08-22T12:04:31.271Z,4.15
2022-08-22T12:08:34.286Z,3.95
2022-08-22T12:12:53.628Z,6.82
2022-08-22T12:17:44.877Z,2.60
2022-08-22T12:21:59.196Z,3.63
2022-08-22T12:26:11.246Z,5.15
2022-08-22T12:30:40.368Z,4.28
2022-08-22T12:35:13.685Z,4.53
2022-08-22T12:40:02.338Z,2.92
2022-08-22T12:44:24.041Z,4.60
2022-08-22T12:48:41.445Z,3.83
2022-08-22T12:53:35.511Z,3.28
2022-08-22T12:58:11.651Z,4.03
2022-08-22T13:02:27.870Z,3.17
2022-08-22T13:06:35.599Z,4.70
2022-08-22T13:11:12.422Z,3.22
2022-08-22T13:15:36.943Z,3.15
2022-08-22T13:20:02.031Z,3.70
2022-08-22T13:24:10.616Z,5.38
2022-08-22T13:28:13.012Z,3.45
2022-08-22T13:33:00.085Z,4.85
2022-08-22T13:37:04.906Z,4.13
2022-08-22T13:41:03.989Z,2.60
2022-08-22T13:45:12.792Z,3.83
2022-08-22T13:49:18.228Z,4.75
2022-08-22T13:53:49.806Z,4.65
2022-08-22T13:58:33.837Z,3.97
2022-08-22T14:02:44.274Z,4.22
2022-08-22T14:07:02.034Z,6.43
2022-08-22T14:11:27.996Z,3.95
2022-08-22T14:15:45.519Z,3.88
2022-08-22T14:19:58.766Z,3.53
2022-08-22T14:24:28.476Z,3.88
2022-08-22T14:28:35.793Z,3.70
2022-08-22T14:33:23.263Z,4.03
2022-08-22T14:37:38.923Z,3.13
2022-08-22T14:41:59.381Z,4.70
2022-08-22T14:46:10.249Z,3.33
2022-08-22T14:50:40.372Z,6.78
2022-08-22T14:54:39.626Z,6.20
2022-08-22T14:59:02.988Z,5.40
2022-08-22T15:03:32.333Z,4.53
2022-08-22T15:07:35.248Z,6.55
2022-08-22T15:11:36.844Z,4.47
2022-08-22T15:15:52.969Z,7.53
2022-08-22T15:19:52.250Z,4.00
2022-08-22T15:23:52.494Z,3.63
2022-08-22T15:28:05.344Z,5.28
2022-08-22T15:32:04.171Z,3.20
2022-08-22T15:36:31.416Z,3.40
2022-08-22T15:40:34.292Z,6.68
2022-08-22T15:44:40.234Z,4.07
2022-08-22T15:48:42.916Z,3.15
2022-08-22T15:53:14.569Z,2.15
2022-08-22T15:57:46.232Z,3.65
2022-08-22T16:02:00.559Z,3.20
2022-08-22T16:06:08.528Z,3.47
2022-08-22T16:10:25.809Z,2.83
2022-08-22T16:14:50.005Z,2.92
2022-08-22T16:18:47.051Z,4.28
2022-08-22T16:22:59.248Z,4.82
2022-08-22T16:26:57.088Z,2.35
2022-08-22T16:30:57.865Z,3.25
2022-08-22T16:34:55.572Z,3.20
2022-08-22T16:38:57.546Z,5.63
2022-08-22T16:43:30.629Z,4.97
2022-08-22T16:47:38.983Z,3.92
2022-08-22T16:52:16.319Z,4.57
2022-08-22T16:56:32.725Z,4.07
2022-08-22T17:01:02.992Z,4.18
2022-08-22T17:06:15.947Z,4.65
2022-08-22T17:10:46.087Z,4.78
2022-08-22T17:15:40.976Z,4.07
2022-08-22T17:20:07.642Z,7.97
2022-08-22T17:24:33.395Z,5.10
2022-08-22T17:28:51.859Z,4.90
2022-08-22T17:33:27.845Z,6.30
2022-08-22T17:38:05.702Z,2.88
2022-08-22T17:42:43.505Z,3.88
2022-08-22T17:46:53.228Z,7.20
2022-08-22T17:51:00.354Z,4.45
2022-08-22T17:55:23.987Z,8.70
2022-08-22T17:59:33.545Z,5.07
2022-08-22T18:03:38.586Z,5.47
2022-08-22T18:07:49.053Z,6.53
2022-08-22T18:12:07.849Z,4.38
2022-08-22T18:16:42.307Z,5.78
2022-08-22T18:21:15.229Z,5.05
2022-08-22T18:25:17.960Z,4.82
2022-08-22T18:29:25.506Z,4.82
2022-08-22T18:34:09.623Z,4.75
2022-08-22T18:38:38.523Z,3.63
2022-08-22T18:42:47.902Z,7.00
2022-08-22T18:46:54.729Z,5.72
2022-08-22T18:50:52.593Z,6.63
2022-08-22T18:55:43.379Z,10.23
2022-08-22T19:00:11.839Z,4.43
2022-08-22T19:04:35.225Z,8.77
2022-08-22T19:09:15.101Z,6.65
2022-08-22T19:13:43.681Z,5.78
2022-08-22T19:18:21.849Z,5.53
2022-08-22T19:22:34.204Z,4.03
2022-08-22T19:26:41.359Z,8.57
2022-08-22T19:30:50.611Z,5.05
2022-08-22T19:34:47.803Z,3.67
2022-08-22T19:39:00.103Z,2.80
2022-08-22T19:42:57.656Z,7.05
2022-08-22T19:47:27.096Z,5.40
2022-08-22T19:51:28.850Z,4.47
2022-08-22T19:55:52.219Z,5.38
2022-08-22T20:00:30.188Z,9.88
2022-08-22T20:05:02.695Z,3.50
2022-08-22T20:09:32.652Z,7.05
2022-08-22T20:13:35.655Z,4.72
2022-08-22T20:17:42.179Z,6.85
2022-08-22T20:21:42.250Z,5.32
2022-08-22T20:25:50.743Z,5.72
2022-08-22T20:30:17.101Z,5.40
2022-08-22T20:34:23.397Z,8.60
2022-08-22T20:38:30.165Z,4.55
2022-08-22T20:42:35.602Z,7.00
2022-08-22T20:47:00.402Z,5.85
2022-08-22T20:51:05.109Z,7.43
2022-08-22T20:55:11.023Z,5.70
2022-08-22T20:59:38.591Z,7.78
2022-08-22T21:03:46.227Z,9.55
2022-08-22T21:07:47.258Z,7.32
2022-08-22T21:11:51.522Z,7.78
2022-08-22T21:15:53.243Z,5.32
2022-08-22T21:19:50.768Z,5.85
2022-08-22T21:23:52.193Z,6.50
2022-08-22T21:27:49.301Z,7.57
2022-08-22T21:32:11.441Z,7.50
2022-08-22T21:36:12.144Z,7.85
2022-08-22T21:40:40.028Z,9.98
2022-08-22T21:44:40.549Z,8.67
2022-08-22T21:49:40.300Z,9.52
2022-08-22T21:53:37.272Z,8.20
2022-08-22T21:57:36.662Z,10.30
2022-08-22T22:01:33.795Z,6.47
2022-08-22T22:05:30.861Z,8.97
2022-08-22T22:09:27.848Z,10.87
2022-08-22T22:13:28.443Z,7.00
2022-08-22T22:17:25.682Z,6.67
2022-08-22T22:21:22.825Z,9.13
2022-08-22T22:25:40.890Z,7.97
2022-08-22T22:29:39.372Z,8.60
2022-08-22T22:33:40.234Z,7.13
2022-08-22T22:37:37.633Z,6.13
2022-08-22T22:41:38.852Z,7.67
2022-08-22T22:45:37.432Z,8.50
2022-08-22T22:49:34.475Z,8.33
2022-08-22T22:53:40.157Z,7.17
2022-08-22T22:57:42.481Z,11.33
2022-08-22T23:02:08.356Z,8.47
2022-08-22T23:06:14.492Z,9.30
2022-08-22T23:10:11.540Z,8.90
2022-08-22T23:14:08.755Z,8.30
2022-08-22T23:18:06.032Z,9.30
2022-08-22T23:22:03.112Z,9.00
2022-08-22T23:26:00.605Z,7.53
2022-08-22T23:29:57.864Z,9.80
2022-08-22T23:34:00.513Z,7.50
2022-08-22T23:37:57.566Z,8.27
2022-08-22T23:41:55.348Z,7.30
2022-08-22T23:45:52.372Z,7.93
2022-08-22T23:49:49.482Z,7.90
2022-08-22T23:53:47.020Z,8.83
2022-08-22T23:57:44.067Z,9.23
